createdAt,value
2019-02-16T00:02:28.509Z,5.30
2019-02-16T00:05:01.181Z,5.30
2019-02-16T00:07:33.561Z,5.30
2019-02-16T00:10:06.493Z,5.20
2019-02-16T00:12:39.175Z,5.20
2019-02-16T00:15:12.074Z,5.30
2019-02-16T00:17:44.600Z,5.20
2019-02-16T00:20:17.337Z,5.20
2019-02-16T00:22:49.960Z,5.20
2019-02-16T00:25:22.447Z,5.30
2019-02-16T00:27:55.100Z,5.20
2019-02-16T00:30:27.399Z,5.10
2019-02-16T00:33:01.527Z,5.00
2019-02-16T00:35:34.123Z,5.00
2019-02-16T00:38:06.756Z,4.90
2019-02-16T00:40:39.233Z,4.90
2019-02-16T00:43:11.607Z,4.90
2019-02-16T00:45:44.189Z,4.80
2019-02-16T00:48:17.393Z,4.80
2019-02-16T00:50:50.152Z,4.80
2019-02-16T00:53:23.586Z,4.80
2019-02-16T00:55:56.039Z,4.80
2019-02-16T00:58:28.616Z,4.80
2019-02-16T01:01:01.110Z,4.80
2019-02-16T01:03:33.652Z,4.80
2019-02-16T01:06:06.290Z,4.80
2019-02-16T01:08:38.580Z,4.80
2019-02-16T01:11:11.698Z,4.80
2019-02-16T01:13:44.125Z,4.60
2019-02-16T01:16:16.596Z,4.40
2019-02-16T01:18:49.403Z,4.40
2019-02-16T01:21:23.023Z,4.30
2019-02-16T01:23:55.782Z,4.20
2019-02-16T01:26:28.257Z,4.00
2019-02-16T01:29:11.741Z,3.90
2019-02-16T01:31:44.141Z,3.80
2019-02-16T01:34:16.571Z,3.80
2019-02-16T01:36:49.092Z,3.80
2019-02-16T01:39:21.893Z,3.80
2019-02-16T01:41:54.547Z,3.80
2019-02-16T01:44:27.291Z,3.80
2019-02-16T01:46:59.957Z,3.80
2019-02-16T01:49:32.625Z,3.80
2019-02-16T01:52:05.194Z,3.80
2019-02-16T01:54:37.609Z,3.70
2019-02-16T01:57:09.998Z,3.60
2019-02-16T01:59:42.534Z,3.40
2019-02-16T02:02:15.643Z,3.40
2019-02-16T02:04:48.328Z,3.40
2019-02-16T02:07:20.700Z,3.40
2019-02-16T02:09:54.568Z,3.30
2019-02-16T02:12:27.523Z,3.20
2019-02-16T02:15:00.229Z,3.20
2019-02-16T02:17:33.256Z,3.30
2019-02-16T02:20:05.871Z,3.20
2019-02-16T02:22:38.454Z,3.20
2019-02-16T02:25:12.107Z,3.20
2019-02-16T02:27:44.766Z,3.20
2019-02-16T02:30:16.855Z,3.20
2019-02-16T02:32:49.328Z,3.20
2019-02-16T02:35:21.777Z,3.10
2019-02-16T02:37:54.450Z,3.00
2019-02-16T02:40:27.510Z,2.90
2019-02-16T02:43:01.078Z,2.90
2019-02-16T02:45:33.830Z,2.90
2019-02-16T02:48:06.650Z,3.00
2019-02-16T02:50:39.044Z,3.00
2019-02-16T02:53:11.902Z,2.90
2019-02-16T02:55:44.265Z,3.00
2019-02-16T02:58:17.108Z,3.00
2019-02-16T03:00:49.588Z,3.00
2019-02-16T03:03:22.374Z,3.00
2019-02-16T03:05:55.435Z,3.00
2019-02-16T03:08:28.078Z,3.10
2019-02-16T03:11:00.921Z,3.00
2019-02-16T03:13:33.750Z,3.00
2019-02-16T03:16:06.407Z,3.10
2019-02-16T03:18:39.340Z,3.10
2019-02-16T03:21:12.001Z,3.10
2019-02-16T03:23:44.567Z,3.10
2019-02-16T03:27:03.105Z,2.90
2019-02-16T03:30:29.450Z,2.90
2019-02-16T03:34:06.346Z,2.90
2019-02-16T03:37:55.887Z,2.90
2019-02-16T03:40:28.431Z,2.80
2019-02-16T03:43:01.244Z,2.80
2019-02-16T03:45:33.849Z,2.70
2019-02-16T03:48:06.191Z,2.60
2019-02-16T03:50:38.568Z,2.60
2019-02-16T03:53:11.159Z,2.60
2019-02-16T03:55:43.729Z,2.60
2019-02-16T03:58:16.384Z,2.60
2019-02-16T04:00:48.903Z,2.60
2019-02-16T04:03:21.860Z,2.70
2019-02-16T04:05:54.389Z,2.70
2019-02-16T04:08:26.794Z,2.70
2019-02-16T04:10:59.095Z,2.70
2019-02-16T04:13:32.417Z,2.70
2019-02-16T04:16:04.763Z,2.70
2019-02-16T04:18:39.419Z,2.60
2019-02-16T04:21:12.127Z,2.70
2019-02-16T04:23:44.837Z,2.70
2019-02-16T04:26:17.337Z,2.60
2019-02-16T04:28:49.821Z,2.60
2019-02-16T04:31:22.081Z,2.60
2019-02-16T04:33:54.732Z,2.60
2019-02-16T04:36:27.178Z,2.70
2019-02-16T04:38:59.854Z,2.60
2019-02-16T04:41:32.193Z,2.60
2019-02-16T04:44:04.533Z,2.40
2019-02-16T04:46:37.223Z,2.30
2019-02-16T04:49:10.265Z,2.30
2019-02-16T04:51:42.698Z,2.40
2019-02-16T04:54:15.387Z,2.30
2019-02-16T04:56:48.254Z,2.30
2019-02-16T04:59:20.939Z,2.40
2019-02-16T05:01:53.690Z,2.40
2019-02-16T05:04:26.276Z,2.30
2019-02-16T05:06:58.755Z,2.40
2019-02-16T05:09:31.354Z,2.40
2019-02-16T05:12:03.978Z,2.50
2019-02-16T05:14:36.705Z,2.50
2019-02-16T05:17:09.327Z,2.40
2019-02-16T05:19:42.064Z,2.30
2019-02-16T05:22:14.722Z,2.30
2019-02-16T05:24:47.102Z,2.20
2019-02-16T05:27:19.857Z,2.20
2019-02-16T05:29:52.366Z,2.20
2019-02-16T05:32:25.101Z,2.20
2019-02-16T05:34:57.504Z,2.20
2019-02-16T05:37:30.606Z,2.20
2019-02-16T05:40:03.188Z,2.20
2019-02-16T05:42:35.675Z,2.20
2019-02-16T05:45:10.517Z,2.30
2019-02-16T05:47:42.947Z,2.40
2019-02-16T05:50:15.569Z,2.30
2019-02-16T05:52:54.399Z,2.30
2019-02-16T05:55:22.098Z,2.30
2019-02-16T05:57:54.741Z,2.20
2019-02-16T06:00:29.404Z,2.10
2019-02-16T06:03:01.962Z,2.00
2019-02-16T06:05:34.681Z,2.00
2019-02-16T06:08:07.409Z,2.00
2019-02-16T06:10:40.014Z,2.20
2019-02-16T06:13:12.556Z,2.30
2019-02-16T06:15:45.098Z,2.40
2019-02-16T06:18:17.646Z,2.40
2019-02-16T06:20:50.152Z,2.50
2019-02-16T06:23:22.729Z,2.60
2019-02-16T06:25:55.572Z,2.70
2019-02-16T06:28:29.491Z,2.90
2019-02-16T06:31:01.964Z,3.00
2019-02-16T06:33:34.539Z,3.20
2019-02-16T06:36:15.131Z,3.40
2019-02-16T06:38:48.131Z,3.60
2019-02-16T06:41:20.765Z,3.80
2019-02-16T06:43:53.258Z,4.10
2019-02-16T06:46:26.037Z,4.30
2019-02-16T06:49:01.473Z,4.40
2019-02-16T06:51:33.914Z,4.60
2019-02-16T06:54:06.456Z,4.80
2019-02-16T06:57:04.030Z,5.00
2019-02-16T06:59:36.479Z,5.20
2019-02-16T07:02:09.057Z,5.50
2019-02-16T07:04:41.610Z,5.70
2019-02-16T07:07:14.021Z,5.80
2019-02-16T07:09:46.453Z,6.10
2019-02-16T07:12:19.005Z,6.30
2019-02-16T07:14:51.450Z,6.50
2019-02-16T07:17:31.553Z,6.80
2019-02-16T07:20:04.088Z,7.00
2019-02-16T07:22:36.445Z,7.30
2019-02-16T07:25:09.324Z,7.70
2019-02-16T07:27:41.699Z,8.00
2019-02-16T07:30:14.295Z,8.30
2019-02-16T07:32:48.438Z,8.60
2019-02-16T07:35:20.925Z,8.80
2019-02-16T07:37:55.046Z,9.10
2019-02-16T07:40:27.653Z,9.30
2019-02-16T07:43:00.203Z,9.70
2019-02-16T07:46:05.606Z,9.80
2019-02-16T07:48:49.756Z,10.00
2019-02-16T07:51:59.369Z,10.00
2019-02-16T07:54:52.141Z,10.50
2019-02-16T07:57:43.566Z,11.10
2019-02-16T08:00:34.332Z,11.70
2019-02-16T08:03:44.175Z,11.90
2019-02-16T08:06:53.852Z,12.00
2019-02-16T08:09:32.755Z,12.10
2019-02-16T08:12:16.095Z,12.40
2019-02-16T08:15:03.379Z,12.90
2019-02-16T08:17:54.624Z,12.90
2019-02-16T08:20:37.991Z,13.20
2019-02-16T08:23:28.236Z,13.30
2019-02-16T08:26:25.779Z,13.00
2019-02-16T08:29:17.227Z,13.10
2019-02-16T08:32:08.434Z,13.50
2019-02-16T08:35:02.572Z,14.00
2019-02-16T08:38:03.090Z,14.40
2019-02-16T08:40:53.176Z,14.10
2019-02-16T08:43:50.543Z,14.70
2019-02-16T08:46:44.546Z,15.20
2019-02-16T08:49:24.278Z,16.10
2019-02-16T08:52:05.380Z,16.00
2019-02-16T08:54:56.883Z,15.60
2019-02-16T08:57:53.998Z,16.20
2019-02-16T09:00:48.329Z,17.00
2019-02-16T09:03:39.834Z,17.30
2019-02-16T09:06:23.947Z,17.80
2019-02-16T09:09:27.475Z,17.60
2019-02-16T09:12:11.614Z,17.80
2019-02-16T09:14:56.194Z,17.90
2019-02-16T09:17:38.449Z,18.50
2019-02-16T09:20:23.938Z,18.60
2019-02-16T09:23:07.299Z,19.50
2019-02-16T09:26:14.445Z,19.70
2019-02-16T09:29:23.626Z,18.80
2019-02-16T09:32:13.300Z,18.70
2019-02-16T09:35:10.804Z,19.30
2019-02-16T09:38:01.303Z,18.10
2019-02-16T09:41:07.904Z,18.60
2019-02-16T09:44:07.905Z,17.90
2019-02-16T09:46:55.342Z,17.40
2019-02-16T09:49:33.239Z,18.10
2019-02-16T09:52:24.542Z,18.20
2019-02-16T09:55:21.931Z,18.00
2019-02-16T09:58:16.597Z,18.00
2019-02-16T10:01:00.841Z,18.50
2019-02-16T10:03:51.938Z,17.70
2019-02-16T10:06:43.457Z,18.10
2019-02-16T10:09:24.798Z,18.70
2019-02-16T10:12:19.207Z,18.30
2019-02-16T10:15:19.571Z,17.60
2019-02-16T10:18:19.815Z,17.50
2019-02-16T10:21:16.953Z,17.80
2019-02-16T10:24:26.244Z,17.80
2019-02-16T10:27:20.318Z,17.60
2019-02-16T10:30:12.037Z,18.10
2019-02-16T10:33:03.278Z,17.70
2019-02-16T10:35:57.328Z,17.70
2019-02-16T10:38:42.496Z,17.60
2019-02-16T10:41:28.209Z,17.10
2019-02-16T10:44:18.070Z,16.70
2019-02-16T10:47:01.110Z,16.80
2019-02-16T10:49:58.116Z,16.50
2019-02-16T10:52:42.867Z,16.60
2019-02-16T10:55:52.565Z,16.90
2019-02-16T10:58:55.854Z,17.60
2019-02-16T11:01:47.202Z,17.20
2019-02-16T11:04:38.460Z,16.80
2019-02-16T11:07:19.463Z,16.70
2019-02-16T11:10:00.474Z,17.00
2019-02-16T11:13:00.641Z,17.50
2019-02-16T11:15:55.119Z,17.10
2019-02-16T11:19:01.481Z,17.00
2019-02-16T11:22:04.705Z,16.80
2019-02-16T11:24:58.783Z,16.30
2019-02-16T11:28:01.212Z,16.00
2019-02-16T11:30:51.008Z,15.80
2019-02-16T11:33:48.593Z,16.10
2019-02-16T11:36:30.718Z,16.70
2019-02-16T11:39:12.534Z,16.70
2019-02-16T11:41:57.476Z,16.90
2019-02-16T11:44:42.177Z,16.80
2019-02-16T11:47:33.470Z,16.60
2019-02-16T11:50:23.644Z,16.40
2019-02-16T11:53:32.990Z,16.10
2019-02-16T11:56:16.142Z,15.70
2019-02-16T11:59:06.999Z,15.70
2019-02-16T12:01:58.869Z,15.80
2019-02-16T12:04:50.034Z,16.10
2019-02-16T12:07:40.255Z,15.90
2019-02-16T12:10:41.569Z,15.50
2019-02-16T12:13:42.108Z,15.30
2019-02-16T12:16:31.036Z,15.30
2019-02-16T12:19:16.399Z,15.30
2019-02-16T12:22:10.697Z,15.20
2019-02-16T12:25:06.287Z,15.20
2019-02-16T12:27:59.308Z,14.90
2019-02-16T12:30:45.591Z,14.40
2019-02-16T12:33:47.696Z,14.20
2019-02-16T12:36:42.138Z,14.10
2019-02-16T12:39:36.488Z,14.10
2019-02-16T12:42:19.676Z,13.90
2019-02-16T12:45:09.501Z,13.50
2019-02-16T12:48:00.194Z,13.50
2019-02-16T12:50:51.575Z,13.50
2019-02-16T12:53:49.229Z,13.10
2019-02-16T12:56:41.901Z,13.00
2019-02-16T12:59:36.396Z,12.90
2019-02-16T13:02:26.486Z,12.80
2019-02-16T13:05:16.447Z,12.70
2019-02-16T13:08:07.789Z,12.60
2019-02-16T13:10:59.110Z,12.80
2019-02-16T13:13:53.304Z,12.70
2019-02-16T13:16:30.712Z,12.70
2019-02-16T13:19:25.475Z,12.70
2019-02-16T13:22:09.743Z,12.80
2019-02-16T13:25:00.607Z,12.70
2019-02-16T13:27:50.088Z,12.50
2019-02-16T13:30:44.161Z,12.50
2019-02-16T13:33:47.638Z,12.60
2019-02-16T13:36:45.540Z,12.60
2019-02-16T13:39:42.843Z,12.70
2019-02-16T13:42:31.234Z,12.60
2019-02-16T13:45:28.449Z,12.70
2019-02-16T13:48:15.326Z,12.80
2019-02-16T13:51:09.692Z,12.80
2019-02-16T13:54:03.759Z,12.90
2019-02-16T13:57:07.023Z,13.00
2019-02-16T13:59:50.408Z,12.90
2019-02-16T14:02:30.022Z,12.80
2019-02-16T14:05:11.099Z,12.80
2019-02-16T14:08:06.114Z,12.60
2019-02-16T14:11:06.534Z,12.50
2019-02-16T14:13:58.763Z,12.60
2019-02-16T14:16:44.009Z,12.60
2019-02-16T14:19:16.806Z,12.70
2019-02-16T14:21:49.826Z,12.70
2019-02-16T14:24:41.297Z,12.70
2019-02-16T14:27:13.699Z,12.60
2019-02-16T14:29:46.252Z,12.60
2019-02-16T14:32:18.762Z,12.60
2019-02-16T14:34:51.254Z,12.50
2019-02-16T14:37:39.601Z,12.40
2019-02-16T14:40:12.334Z,12.30
2019-02-16T14:42:44.711Z,12.30
2019-02-16T14:45:17.436Z,12.30
2019-02-16T14:47:50.060Z,12.30
2019-02-16T14:50:22.591Z,12.10
2019-02-16T14:52:55.221Z,12.20
2019-02-16T14:55:27.577Z,12.20
2019-02-16T14:58:00.228Z,12.20
2019-02-16T15:00:33.053Z,12.10
2019-02-16T15:03:06.187Z,12.20
2019-02-16T15:05:38.747Z,12.10
2019-02-16T15:08:13.376Z,12.00
2019-02-16T15:10:45.940Z,11.80
2019-02-16T15:13:18.540Z,11.90
2019-02-16T15:15:52.170Z,11.90
2019-02-16T15:18:24.597Z,11.90
2019-02-16T15:20:57.327Z,11.80
2019-02-16T15:23:29.792Z,11.80
2019-02-16T15:26:02.423Z,11.80
2019-02-16T15:28:35.131Z,11.80
2019-02-16T15:31:07.865Z,11.70
2019-02-16T15:33:40.576Z,11.50
2019-02-16T15:36:23.487Z,11.40
2019-02-16T15:38:48.498Z,11.20
2019-02-16T15:41:20.971Z,11.20
2019-02-16T15:43:53.621Z,11.10
2019-02-16T15:46:26.188Z,11.10
2019-02-16T15:48:58.883Z,11.00
2019-02-16T15:51:31.335Z,10.90
2019-02-16T15:54:03.861Z,11.00
2019-02-16T15:56:36.299Z,11.00
2019-02-16T15:59:09.608Z,11.00
2019-02-16T16:01:42.457Z,10.90
2019-02-16T16:04:16.586Z,10.90
2019-02-16T16:06:49.443Z,10.90
2019-02-16T16:09:45.665Z,10.90
2019-02-16T16:12:25.066Z,10.90
2019-02-16T16:15:03.734Z,10.80
2019-02-16T16:17:54.239Z,10.70
2019-02-16T16:20:54.849Z,10.80
2019-02-16T16:23:52.221Z,10.80
2019-02-16T16:26:43.774Z,10.70
2019-02-16T16:29:38.259Z,10.40
2019-02-16T16:32:27.625Z,10.20
2019-02-16T16:35:21.953Z,10.10
2019-02-16T16:38:07.829Z,9.90
2019-02-16T16:40:59.212Z,9.80
2019-02-16T16:43:40.074Z,9.70
2019-02-16T16:46:31.306Z,9.60
2019-02-16T16:49:22.495Z,9.50
2019-02-16T16:52:13.827Z,9.30
2019-02-16T16:55:14.376Z,9.20
2019-02-16T16:58:08.852Z,9.20
2019-02-16T17:00:59.448Z,9.10
2019-02-16T17:03:55.778Z,9.00
2019-02-16T17:06:47.399Z,8.90
2019-02-16T17:09:44.439Z,9.00
2019-02-16T17:12:39.053Z,8.70
2019-02-16T17:15:29.321Z,8.60
2019-02-16T17:18:19.635Z,8.60
2019-02-16T17:21:13.978Z,8.50
2019-02-16T17:24:03.807Z,8.50
2019-02-16T17:26:53.620Z,8.40
2019-02-16T17:29:38.553Z,8.40
2019-02-16T17:32:23.285Z,8.40
2019-02-16T17:35:12.588Z,8.30
2019-02-16T17:37:52.848Z,8.30
2019-02-16T17:40:42.726Z,8.20
2019-02-16T17:43:29.546Z,8.30
2019-02-16T17:46:29.762Z,8.30
2019-02-16T17:49:20.959Z,8.20
2019-02-16T17:52:08.595Z,8.10
2019-02-16T17:54:58.531Z,7.90
2019-02-16T17:57:35.587Z,7.90
2019-02-16T18:00:35.591Z,7.80
2019-02-16T18:03:25.081Z,7.70
2019-02-16T18:06:16.188Z,7.60
2019-02-16T18:09:06.356Z,7.60
2019-02-16T18:12:03.676Z,7.70
2019-02-16T18:14:44.551Z,7.70
2019-02-16T18:17:35.958Z,7.70
2019-02-16T18:20:30.967Z,7.60
2019-02-16T18:23:17.841Z,7.50
2019-02-16T18:25:59.109Z,7.40
2019-02-16T18:28:57.012Z,7.40
2019-02-16T18:31:38.080Z,7.40
2019-02-16T18:34:28.340Z,7.30
2019-02-16T18:37:10.373Z,7.30
2019-02-16T18:39:56.252Z,7.30
2019-02-16T18:42:48.184Z,7.30
2019-02-16T18:45:42.445Z,7.20
2019-02-16T18:48:33.737Z,7.20
2019-02-16T18:51:18.780Z,7.20
2019-02-16T18:54:13.101Z,7.30
2019-02-16T18:57:06.625Z,7.20
2019-02-16T18:59:59.293Z,7.10
2019-02-16T19:02:45.274Z,7.10
2019-02-16T19:05:37.511Z,7.10
2019-02-16T19:08:24.440Z,7.00
2019-02-16T19:11:24.783Z,6.90
2019-02-16T19:14:15.032Z,6.80
2019-02-16T19:17:04.870Z,6.80
2019-02-16T19:19:54.590Z,6.80
2019-02-16T19:22:56.095Z,6.90
2019-02-16T19:25:47.295Z,6.90
2019-02-16T19:28:31.550Z,6.70
2019-02-16T19:31:21.343Z,6.70
2019-02-16T19:34:11.986Z,6.60
2019-02-16T19:36:59.579Z,6.60
2019-02-16T19:39:50.336Z,6.60
2019-02-16T19:42:37.184Z,6.60
2019-02-16T19:45:28.711Z,6.60
2019-02-16T19:48:18.672Z,6.60
2019-02-16T19:51:02.873Z,6.60
2019-02-16T19:54:00.279Z,6.50
2019-02-16T19:57:04.026Z,6.40
2019-02-16T19:59:50.739Z,6.40
2019-02-16T20:02:39.283Z,6.30
2019-02-16T20:05:36.656Z,6.40
2019-02-16T20:08:30.244Z,6.40
2019-02-16T20:11:21.961Z,6.30
2019-02-16T20:14:12.208Z,6.30
2019-02-16T20:17:12.667Z,6.30
2019-02-16T20:20:20.827Z,6.30
2019-02-16T20:23:11.035Z,6.20
2019-02-16T20:26:11.308Z,6.10
2019-02-16T20:29:02.221Z,6.10
2019-02-16T20:31:53.505Z,6.00
2019-02-16T20:34:44.928Z,6.00
2019-02-16T20:37:34.482Z,6.00
2019-02-16T20:40:20.043Z,6.00
2019-02-16T20:43:10.434Z,6.00
2019-02-16T20:46:08.403Z,6.00
2019-02-16T20:48:59.958Z,5.80
2019-02-16T20:52:00.411Z,5.80
2019-02-16T20:54:59.566Z,5.70
2019-02-16T20:57:53.448Z,5.70
2019-02-16T21:00:53.048Z,5.60
2019-02-16T21:03:38.273Z,5.60
2019-02-16T21:06:24.371Z,5.60
2019-02-16T21:09:11.144Z,5.40
2019-02-16T21:11:49.791Z,5.40
2019-02-16T21:14:31.689Z,5.40
2019-02-16T21:17:25.588Z,5.40
2019-02-16T21:20:16.928Z,5.40
2019-02-16T21:23:12.250Z,5.40
2019-02-16T21:26:08.872Z,5.20
2019-02-16T21:28:46.991Z,5.10
2019-02-16T21:31:35.191Z,5.00
2019-02-16T21:34:44.644Z,5.00
2019-02-16T21:37:41.464Z,5.00
2019-02-16T21:40:33.173Z,5.00
2019-02-16T21:43:36.609Z,4.90
2019-02-16T21:46:31.100Z,4.90
2019-02-16T21:49:28.682Z,4.90
2019-02-16T21:52:26.109Z,4.90
2019-02-16T21:55:20.048Z,5.00
2019-02-16T21:58:30.057Z,4.90
2019-02-16T22:01:24.387Z,4.70
2019-02-16T22:04:31.113Z,4.70
2019-02-16T22:07:40.775Z,4.70
2019-02-16T22:10:43.799Z,4.70
2019-02-16T22:13:16.447Z,4.60
2019-02-16T22:15:49.414Z,4.60
2019-02-16T22:18:21.912Z,4.60
2019-02-16T22:20:54.521Z,4.60
2019-02-16T22:23:27.751Z,4.40
2019-02-16T22:26:00.461Z,4.40
2019-02-16T22:28:33.128Z,4.50
2019-02-16T22:31:05.652Z,4.40
2019-02-16T22:33:38.323Z,4.40
2019-02-16T22:36:10.951Z,4.40
2019-02-16T22:38:44.004Z,4.30
2019-02-16T22:41:16.567Z,4.30
2019-02-16T22:43:49.047Z,4.30
2019-02-16T22:46:21.555Z,4.30
2019-02-16T22:48:54.040Z,4.30
2019-02-16T22:51:26.479Z,4.30
2019-02-16T22:53:59.158Z,4.30
2019-02-16T22:56:31.680Z,4.30
2019-02-16T22:59:04.258Z,4.30
2019-02-16T23:01:37.332Z,4.20
2019-02-16T23:04:10.817Z,4.10
2019-02-16T23:06:43.375Z,4.00
2019-02-16T23:09:29.328Z,3.90
2019-02-16T23:12:02.070Z,4.00
2019-02-16T23:14:35.440Z,3.90
2019-02-16T23:17:08.892Z,3.80
2019-02-16T23:19:52.630Z,3.80
2019-02-16T23:22:25.351Z,3.80
2019-02-16T23:24:57.945Z,3.80
2019-02-16T23:27:30.841Z,3.90
2019-02-16T23:30:03.620Z,3.90
2019-02-16T23:32:37.930Z,3.80
2019-02-16T23:35:11.398Z,3.80
2019-02-16T23:37:44.019Z,3.80
2019-02-16T23:40:16.707Z,3.70
2019-02-16T23:42:49.202Z,3.60
2019-02-16T23:45:21.722Z,3.60
2019-02-16T23:47:54.284Z,3.70
2019-02-16T23:50:27.010Z,3.60
2019-02-16T23:52:59.610Z,3.60
2019-02-16T23:55:33.070Z,3.60
2019-02-16T23:58:05.664Z,3.60
